Onancock, Virginia
Current Conditions -  °F | °C
As of 7:15 AM on Monday 24 Nov 2014 (Local Time) from KMFV Reporting Station
Haze Haze  
Wind Chill: 63°   Ceiling: 300
Heat Index: 63°   Visibility: 2mi
Dew Point: 59°   Wind: 9mph
Humidity: 88%   Direction: 200°SSW
Pressure: 29.76"   Gusts: NA
Location:  37.71°N, 75.75°W
Report Text: KMFV 241215Z AUTO 20008KT 2SM BR OVC003 17/15 A2976 RMK AO2
Loading
Personal Weather Stations






























Interactive Weather Map New forecast layout! Learn more

10-Day Weather Forecast

Advertisements
Track Severe Weather on mobile